Česky Dansk Deutsch English Español Suomi Français Magyar Italiano Nederlands norsk Polski Português svenska Türkçe

 

Het Weer

Lyon / Satolas (Frankrijk)

16:30, 19 augustus 2016 (GMT)

NWNNE
WE
SWSSE
Home            
Lyon / Satolas Lyon / Bron Amberieu Grenoble / St. Geoirs Chambery / Aix-Les-Bains St-Etienne Boutheon Macon Geneve-Cointrin Saint-Yan Le Puy Montelimar Vichy Dole Tavaux Clermont-Ferrand Lausanne Dijon Orange Sion Besancon Mende / Brenoux Payerne St-Auban-Sur-Durance Les Eplatures

Om een weerknop op uw website of weblog te plaatsen, copieer onderstaande code en plak die in uw pagina. In het eerste vakje staat HTML-code, in het tweede vakje UBB-code.


Add to Google

Details

Wind speed:2 bf, 6 kn, 3.1 m/s, 6.9 miles/h, 11.1 km/h
Wind direction:N, 010° - E, 080°
Visibility:Greater than 10000 m, 10 km, 32800 ft, 6.2 miles
Clouds:CAVOC
Temperature:27°C, 81°F
Gefühlte Temperatur:27°C, 81°F
Dew-point:15°C, 59°F
Atmospheric pressure:1011 hPa, 758.3 mmHg, 29.85 inHg, 0.998 atm
Relative humidity:47.8 %
METAR:LFLL 191630Z 04006KT 010V080 CAVOK 27/15 Q1011 NOSIG

Snelkoppelingen

Actuele weersinformatie van de hele wereld. Voeg locaties toe met het plus (+) symbool. Deze snelkoppelingen kunnen worden toegevoegd aan Google.

Lid van de Technetium groep

website free tracking
StatCounter NetStat W3C Validator

20-01-2022 08:11:17
astro.technetium.be money.technetium.be phote.technetium.be tafeltennistafel.technetium.be www.ligfiets.net